Time;durP1;ratioP1;P1;durP2;ratioP2;P2;SDS_P1;SDS_P2;PMS_P1;PMS_P2;Temp;Humidity;BMP_temperature;BMP_pressure;BME280_temperature;BME280_humidity;BME280_pressure;Samples;Min_cycle;Max_cycle;Signal;HPM_P1;HPM_P2
2022/07/13 00:00:12;;;;;;;;;;;;;;;19.29;59.28;100537.34;1088284;54;19943;-84
2022/07/13 00:01:16;;;;;;;;;;;;;;;19.17;59.26;100537.88;1088176;54;19949;-84
2022/07/13 00:02:17;;;;;;;;;;;;;;;19.20;59.25;100541.19;1088402;54;19943;-82
2022/07/13 00:03:21;;;;;;;;;;;;;;;19.20;59.38;100531.22;1088565;54;20012;-77
2022/07/13 00:04:22;;;;;;;;;;;;;;;19.22;59.14;100531.88;1090386;39;20633;-84
2022/07/13 00:05:26;;;;;;;;;;;;;;;19.22;59.29;100540.00;1088416;54;19947;-83
2022/07/13 00:06:27;;;;;;;;;;;;;;;19.17;59.26;100535.16;1088562;54;19938;-85
2022/07/13 00:07:31;;;;;;;;;;;;;;;19.12;59.23;100540.28;1088470;54;19933;-83
2022/07/13 00:08:32;;;;;;;;;;;;;;;19.06;59.78;100538.34;1089703;46;19927;-86
2022/07/13 00:09:36;;;;;;;;;;;;;;;19.11;59.89;100535.91;1088656;54;19942;-84
2022/07/13 00:10:37;;;;;;;;;;;;;;;19.02;60.43;100546.00;1088585;54;19949;-84
2022/07/13 00:11:41;;;;;;;;;;;;;;;19.01;60.58;100555.16;1088469;54;19943;-83
2022/07/13 00:12:42;;;;;;;;;;;;;;;18.99;60.80;100548.22;1088586;54;19934;-85
2022/07/13 00:13:45;;;;;;;;;;;;;;;18.96;60.85;100548.63;1088616;54;19942;-80
2022/07/13 00:14:49;;;;;;;;;;;;;;;18.94;61.08;100551.50;1088499;54;19927;-81
2022/07/13 00:15:53;;;;;;;;;;;;;;;18.88;61.29;100538.69;1088483;54;19951;-82
2022/07/13 00:16:54;;;;;;;;;;;;;;;18.81;61.19;100538.59;1088352;54;19927;-83
2022/07/13 00:17:58;;;;;;;;;;;;;;;18.77;61.58;100544.56;1088015;54;19950;-81
2022/07/13 00:18:59;;;;;;;;;;;;;;;18.75;61.48;100539.34;1088081;54;19943;-85
2022/07/13 00:20:03;;;;;;;;;;;;;;;18.78;61.23;100535.41;1088352;54;19992;-79
2022/07/13 00:21:08;;;;;;;;;;;;;;;18.74;60.89;100537.66;1089199;46;20010;-77
2022/07/13 00:22:09;;;;;;;;;;;;;;;18.78;61.27;100533.56;1088336;54;19943;-80
2022/07/13 00:23:13;;;;;;;;;;;;;;;18.85;60.97;100531.78;1088525;54;19938;-83
2022/07/13 00:24:14;;;;;;;;;;;;;;;18.84;61.05;100535.53;1088491;54;19949;-82
2022/07/13 00:25:18;;;;;;;;;;;;;;;18.81;60.98;100532.34;1088466;54;19954;-81
2022/07/13 00:26:19;;;;;;;;;;;;;;;18.78;61.06;100532.72;1088488;54;20543;-84
2022/07/13 00:27:23;;;;;;;;;;;;;;;18.73;61.09;100533.28;1089458;46;19934;-78
2022/07/13 00:28:25;;;;;;;;;;;;;;;18.69;61.30;100532.81;1091959;39;20574;-78
2022/07/13 00:29:29;;;;;;;;;;;;;;;18.66;61.38;100535.06;1088389;54;20531;-77
2022/07/13 00:30:32;;;;;;;;;;;;;;;18.66;61.33;100529.63;1088430;54;19942;-78
2022/07/13 00:31:36;;;;;;;;;;;;;;;18.69;60.79;100529.28;1088464;54;19950;-80
2022/07/13 00:32:37;;;;;;;;;;;;;;;18.80;60.54;100528.78;1088404;54;20002;-77
2022/07/13 00:33:41;;;;;;;;;;;;;;;18.82;60.44;100529.44;1088445;54;19931;-79
2022/07/13 00:34:42;;;;;;;;;;;;;;;18.79;61.01;100524.41;1088240;54;20661;-85
2022/07/13 00:35:46;;;;;;;;;;;;;;;18.69;61.11;100529.28;1090809;39;20782;-84
2022/07/13 00:36:47;;;;;;;;;;;;;;;18.64;61.52;100526.28;1088120;54;19946;-84
2022/07/13 00:37:51;;;;;;;;;;;;;;;18.70;60.92;100526.38;1088361;54;20473;-84
2022/07/13 00:38:53;;;;;;;;;;;;;;;18.68;61.22;100522.19;1088511;54;20698;-84
2022/07/13 00:39:57;;;;;;;;;;;;;;;18.78;60.80;100521.88;1088552;54;19942;-83
2022/07/13 00:40:58;;;;;;;;;;;;;;;18.80;60.69;100526.06;1088413;54;19950;-84
2022/07/13 00:42:02;;;;;;;;;;;;;;;18.82;60.69;100525.91;1088257;54;19974;-85
2022/07/13 00:43:03;;;;;;;;;;;;;;;18.79;60.59;100518.16;1088560;54;19923;-85
2022/07/13 00:44:10;;;;;;;;;;;;;;;18.81;60.64;100516.94;1088472;54;19943;-84
2022/07/13 00:45:12;;;;;;;;;;;;;;;18.84;60.70;100516.56;1088513;54;19937;-85
2022/07/13 00:46:20;;;;;;;;;;;;;;;18.80;60.78;100525.25;1088496;54;19961;-85
2022/07/13 00:47:22;;;;;;;;;;;;;;;18.70;61.33;100526.38;1088401;54;19950;-85
2022/07/13 00:48:26;;;;;;;;;;;;;;;18.72;61.26;100528.88;1088400;54;19945;-83
2022/07/13 00:49:27;;;;;;;;;;;;;;;18.70;61.18;100531.78;1090401;46;19969;-83
2022/07/13 00:50:31;;;;;;;;;;;;;;;18.66;61.11;100540.47;1088440;54;20547;-84
2022/07/13 00:51:32;;;;;;;;;;;;;;;18.55;61.68;100533.66;1088403;54;19950;-86
2022/07/13 00:52:37;;;;;;;;;;;;;;;18.60;61.45;100535.81;1088283;54;19942;-83
2022/07/13 00:53:39;;;;;;;;;;;;;;;18.53;61.79;100538.41;1088033;54;19943;-84
2022/07/13 00:54:44;;;;;;;;;;;;;;;18.44;62.38;100532.22;1088099;54;19950;-85
2022/07/13 00:55:46;;;;;;;;;;;;;;;18.37;62.44;100531.28;1088387;54;19966;-84
2022/07/13 00:56:50;;;;;;;;;;;;;;;18.39;62.19;100530.06;1094471;39;20796;-84
2022/07/13 00:57:54;;;;;;;;;;;;;;;18.40;62.29;100529.06;1088432;54;20762;-83
2022/07/13 00:58:56;;;;;;;;;;;;;;;18.44;62.07;100526.81;1088419;54;19942;-83
2022/07/13 01:00:00;;;;;;;;;;;;;;;18.50;61.80;100536.06;1088433;54;20491;-83
2022/07/13 01:01:02;;;;;;;;;;;;;;;18.50;61.83;100531.50;1088445;54;19962;-84
2022/07/13 01:02:08;;;;;;;;;;;;;;;18.53;61.30;100525.69;1088375;54;20023;-85
2022/07/13 01:03:09;;;;;;;;;;;;;;;18.51;61.13;100525.06;1088455;54;19943;-86
2022/07/13 01:04:13;;;;;;;;;;;;;;;18.45;61.39;100530.38;1088476;54;20765;-85
2022/07/13 01:05:15;;;;;;;;;;;;;;;18.46;61.13;100530.19;1088445;54;19962;-87
2022/07/13 01:06:19;;;;;;;;;;;;;;;18.43;61.40;100530.53;1088435;54;19938;-84
2022/07/13 01:07:21;;;;;;;;;;;;;;;18.44;61.14;100528.69;1088405;54;19951;-84
2022/07/13 01:08:26;;;;;;;;;;;;;;;18.47;60.79;100523.75;1088424;54;19926;-85
2022/07/13 01:09:27;;;;;;;;;;;;;;;18.50;60.91;100523.38;1088465;54;19942;-84
2022/07/13 01:10:31;;;;;;;;;;;;;;;18.54;60.68;100526.56;1088222;54;19942;-84
2022/07/13 01:11:33;;;;;;;;;;;;;;;18.56;60.79;100524.50;1088017;54;19942;-83
2022/07/13 01:12:37;;;;;;;;;;;;;;;18.58;60.91;100521.59;1088022;54;19942;-85
2022/07/13 01:13:38;;;;;;;;;;;;;;;18.59;61.17;100526.00;1088595;47;19934;-85
2022/07/13 01:14:43;;;;;;;;;;;;;;;18.61;60.80;100521.25;1088389;54;19942;-83
2022/07/13 01:15:45;;;;;;;;;;;;;;;18.60;60.99;100524.97;1088416;54;19935;-85
2022/07/13 01:16:52;;;;;;;;;;;;;;;18.62;61.38;100525.59;1088370;54;19943;-79
2022/07/13 01:17:56;;;;;;;;;;;;;;;18.64;61.40;100521.72;1088408;54;19943;-86
2022/07/13 01:19:01;;;;;;;;;;;;;;;18.64;61.42;100521.72;1088412;54;19942;-85
2022/07/13 01:20:03;;;;;;;;;;;;;;;18.59;61.47;100518.72;1088381;54;19950;-79
2022/07/13 01:21:07;;;;;;;;;;;;;;;18.59;61.40;100515.16;1088313;54;19954;-80
2022/07/13 01:22:11;;;;;;;;;;;;;;;18.60;61.47;100517.69;1088242;54;19927;-80
2022/07/13 01:23:19;;;;;;;;;;;;;;;18.59;61.71;100517.88;1088326;54;19945;-80
2022/07/13 01:24:20;;;;;;;;;;;;;;;18.59;61.18;100523.28;1088955;46;19942;-79
2022/07/13 01:25:24;;;;;;;;;;;;;;;18.60;61.09;100531.22;1088279;54;19943;-80
2022/07/13 01:26:25;;;;;;;;;;;;;;;18.63;60.84;100520.03;1088298;54;19942;-78
2022/07/13 01:27:29;;;;;;;;;;;;;;;18.63;60.58;100522.72;1088273;54;19942;-77
2022/07/13 01:28:31;;;;;;;;;;;;;;;18.67;60.23;100520.50;1088861;39;20575;-78
2022/07/13 01:29:35;;;;;;;;;;;;;;;18.74;59.63;100516.00;1088138;54;19949;-81
2022/07/13 01:30:36;;;;;;;;;;;;;;;18.81;59.32;100519.63;1088203;54;19942;-83
2022/07/13 01:31:41;;;;;;;;;;;;;;;18.91;58.90;100511.25;1088439;54;19931;-85
2022/07/13 01:32:43;;;;;;;;;;;;;;;19.02;58.68;100512.66;1088394;54;19950;-86
2022/07/13 01:33:47;;;;;;;;;;;;;;;19.10;58.74;100515.25;1088451;54;19950;-86
2022/07/13 01:34:48;;;;;;;;;;;;;;;19.11;58.39;100510.69;1088422;54;19950;-86
2022/07/13 01:35:55;;;;;;;;;;;;;;;19.15;58.03;100510.13;1088406;54;20555;-82
2022/07/13 01:36:56;;;;;;;;;;;;;;;19.10;58.10;100520.66;1088328;54;19942;-83
2022/07/13 01:38:01;;;;;;;;;;;;;;;19.03;58.25;100514.31;1088345;54;19931;-83
2022/07/13 01:39:05;;;;;;;;;;;;;;;18.87;58.79;100512.63;1088357;54;19965;-80
2022/07/13 01:40:10;;;;;;;;;;;;;;;18.76;58.95;100515.81;1088376;54;19954;-82
2022/07/13 01:41:11;;;;;;;;;;;;;;;18.74;59.38;100517.88;1088336;54;19950;-81
2022/07/13 01:42:15;;;;;;;;;;;;;;;18.77;59.24;100523.75;1087993;54;19950;-80
2022/07/13 01:43:17;;;;;;;;;;;;;;;18.65;59.82;100517.13;1088006;54;19955;-81
2022/07/13 01:44:20;;;;;;;;;;;;;;;18.62;59.61;100517.47;1088295;54;19942;-80
2022/07/13 01:45:22;;;;;;;;;;;;;;;18.55;60.17;100525.53;1088185;54;19950;-79
2022/07/13 01:46:26;;;;;;;;;;;;;;;18.51;60.03;100516.09;1087910;54;19942;-79
2022/07/13 01:47:27;;;;;;;;;;;;;;;18.52;60.12;100515.91;1090377;39;20518;-82
2022/07/13 01:48:31;;;;;;;;;;;;;;;18.54;60.36;100516.56;1087288;54;19950;-81
2022/07/13 01:49:32;;;;;;;;;;;;;;;18.55;60.46;100514.72;1087590;54;19951;-86
2022/07/13 01:50:36;;;;;;;;;;;;;;;18.48;60.67;100508.34;1088254;54;19937;-86
2022/07/13 01:51:38;;;;;;;;;;;;;;;18.49;60.48;100512.72;1088233;54;19927;-85
2022/07/13 01:52:42;;;;;;;;;;;;;;;18.53;60.51;100505.94;1088088;54;19939;-86
2022/07/13 01:53:44;;;;;;;;;;;;;;;18.51;60.22;100506.13;1088327;54;20046;-88
2022/07/13 01:54:50;;;;;;;;;;;;;;;18.52;60.25;100510.47;1088214;54;19946;-80
2022/07/13 01:55:51;;;;;;;;;;;;;;;18.60;59.82;100511.44;1087623;54;19958;-82
2022/07/13 01:56:55;;;;;;;;;;;;;;;18.56;60.27;100508.28;1087564;54;19974;-84
2022/07/13 01:57:56;;;;;;;;;;;;;;;18.57;60.36;100504.50;1087900;54;19942;-83
2022/07/13 01:59:00;;;;;;;;;;;;;;;18.64;60.17;100504.59;1087927;54;19949;-82
2022/07/13 02:00:03;;;;;;;;;;;;;;;18.60;60.52;100504.16;1087969;54;19946;-86
2022/07/13 02:01:07;;;;;;;;;;;;;;;18.51;61.08;100500.72;1087850;54;19942;-81
2022/07/13 02:02:08;;;;;;;;;;;;;;;18.53;60.92;100501.34;1087688;54;19961;-82
2022/07/13 02:03:12;;;;;;;;;;;;;;;18.51;61.11;100495.28;1087760;54;19994;-80
2022/07/13 02:04:13;;;;;;;;;;;;;;;18.50;61.20;100500.88;1088257;54;19943;-81
2022/07/13 02:05:20;;;;;;;;;;;;;;;18.47;61.74;100488.56;1088161;54;19942;-83
2022/07/13 02:06:21;;;;;;;;;;;;;;;18.49;61.84;100486.50;1088316;54;19926;-82
2022/07/13 02:07:25;;;;;;;;;;;;;;;18.44;61.87;100494.34;1096405;39;20531;-84
2022/07/13 02:08:26;;;;;;;;;;;;;;;18.46;62.23;100486.03;1088228;54;19957;-83
2022/07/13 02:09:30;;;;;;;;;;;;;;;18.44;62.02;100483.50;1087875;54;20073;-80
2022/07/13 02:10:37;;;;;;;;;;;;;;;18.41;62.09;100478.47;1087675;54;19946;-81
2022/07/13 02:11:41;;;;;;;;;;;;;;;18.43;62.36;100481.81;1087700;54;19938;-82
2022/07/13 02:12:43;;;;;;;;;;;;;;;18.45;62.14;100485.19;1088320;54;19927;-87
2022/07/13 02:14:49;;;;;;;;;;;;;;;18.55;61.84;100482.22;1088608;54;19923;-85
2022/07/13 02:15:50;;;;;;;;;;;;;;;18.63;61.56;100470.44;1088539;54;19951;-85
2022/07/13 02:16:54;;;;;;;;;;;;;;;18.63;61.24;100475.84;1088529;54;19943;-85
2022/07/13 02:17:55;;;;;;;;;;;;;;;18.70;61.05;100484.94;1088472;54;20590;-85
2022/07/13 02:18:59;;;;;;;;;;;;;;;18.74;60.95;100475.38;1088462;54;20034;-84
2022/07/13 02:20:01;;;;;;;;;;;;;;;18.66;61.02;100475.47;1088393;54;19979;-80
2022/07/13 02:21:05;;;;;;;;;;;;;;;18.57;61.14;100472.03;1087719;54;19942;-80
2022/07/13 02:22:07;;;;;;;;;;;;;;;18.54;61.36;100472.41;1087216;54;19942;-81
2022/07/13 02:23:15;;;;;;;;;;;;;;;18.48;61.50;100474.00;1087158;54;19950;-79
2022/07/13 02:24:17;;;;;;;;;;;;;;;18.43;61.67;100473.69;1088035;54;19966;-82
2022/07/13 02:25:21;;;;;;;;;;;;;;;18.46;61.57;100467.94;1088211;46;19942;-79
2022/07/13 02:26:24;;;;;;;;;;;;;;;18.45;61.60;100476.25;1089184;39;20380;-80
2022/07/13 02:27:28;;;;;;;;;;;;;;;18.58;61.07;100472.88;1087531;54;19947;-81
2022/07/13 02:28:29;;;;;;;;;;;;;;;18.60;60.79;100468.13;1087586;54;20488;-80
2022/07/13 02:29:33;;;;;;;;;;;;;;;18.63;60.92;100470.44;1089495;39;20361;-79
2022/07/13 02:30:34;;;;;;;;;;;;;;;18.68;60.52;100473.44;1088242;54;19931;-85
2022/07/13 02:31:38;;;;;;;;;;;;;;;18.76;60.22;100469.75;1088384;54;19935;-88
2022/07/13 02:32:40;;;;;;;;;;;;;;;18.84;59.92;100470.50;1088782;47;19942;-80
2022/07/13 02:33:44;;;;;;;;;;;;;;;18.92;59.99;100468.72;1088280;54;19927;-82
2022/07/13 02:34:45;;;;;;;;;;;;;;;18.96;59.59;100476.31;1088324;54;19927;-82
2022/07/13 02:35:49;;;;;;;;;;;;;;;19.00;59.31;100476.78;1088008;54;19942;-78
2022/07/13 02:36:50;;;;;;;;;;;;;;;19.03;59.46;100465.56;1087718;54;19954;-80
2022/07/13 02:37:54;;;;;;;;;;;;;;;19.06;59.15;100478.75;1087699;54;19938;-79
2022/07/13 02:38:55;;;;;;;;;;;;;;;19.10;59.17;100469.19;1087274;54;19946;-79
2022/07/13 02:39:59;;;;;;;;;;;;;;;19.11;59.03;100475.47;1088152;39;20356;-81
2022/07/13 02:41:00;;;;;;;;;;;;;;;19.13;59.00;100476.09;1087325;54;19942;-81
2022/07/13 02:42:06;;;;;;;;;;;;;;;19.15;59.12;100468.59;1087681;54;20074;-79
2022/07/13 02:43:07;;;;;;;;;;;;;;;19.17;59.03;100466.56;1087908;54;19939;-80
2022/07/13 02:44:11;;;;;;;;;;;;;;;19.21;58.72;100469.72;1088035;54;19998;-84
2022/07/13 02:45:12;;;;;;;;;;;;;;;19.21;59.10;100467.88;1088427;54;19949;-85
2022/07/13 02:46:16;;;;;;;;;;;;;;;19.24;58.98;100467.47;1088460;54;19927;-83
2022/07/13 02:47:18;;;;;;;;;;;;;;;19.26;58.61;100464.59;1088195;54;19931;-83
2022/07/13 02:48:22;;;;;;;;;;;;;;;19.24;59.23;100472.88;1096114;31;20712;-81
2022/07/13 02:49:23;;;;;;;;;;;;;;;19.22;59.50;100463.28;1088314;54;19941;-81
2022/07/13 02:50:27;;;;;;;;;;;;;;;19.16;60.18;100471.16;1088271;54;19986;-82
2022/07/13 02:51:28;;;;;;;;;;;;;;;19.04;60.80;100464.53;1088281;54;19965;-82
2022/07/13 02:52:32;;;;;;;;;;;;;;;19.05;60.44;100474.34;1088226;54;19935;-81
2022/07/13 02:53:35;;;;;;;;;;;;;;;19.09;60.40;100464.78;1088264;54;19943;-81
2022/07/13 02:54:37;;;;;;;;;;;;;;;19.06;60.88;100458.91;1088252;54;19942;-82
2022/07/13 02:55:41;;;;;;;;;;;;;;;19.08;60.64;100468.53;1091196;39;20130;-82
2022/07/13 02:56:42;;;;;;;;;;;;;;;19.13;60.13;100457.97;1088023;54;19935;-82
2022/07/13 02:57:48;;;;;;;;;;;;;;;19.15;60.26;100464.06;1087802;54;19942;-83
2022/07/13 02:58:49;;;;;;;;;;;;;;;19.18;59.88;100455.50;1089207;47;20654;-81
2022/07/13 02:59:53;;;;;;;;;;;;;;;19.17;60.23;100456.56;1088187;54;19950;-83
2022/07/13 03:00:54;;;;;;;;;;;;;;;19.21;59.96;100458.88;1088250;54;19946;-81
2022/07/13 03:01:58;;;;;;;;;;;;;;;19.21;59.81;100456.16;1088168;54;19943;-82
2022/07/13 03:03:02;;;;;;;;;;;;;;;19.25;59.54;100452.88;1088213;54;19942;-83
2022/07/13 03:04:03;;;;;;;;;;;;;;;19.30;59.55;100455.00;1088197;54;19949;-82
2022/07/13 03:05:08;;;;;;;;;;;;;;;19.31;59.37;100456.69;1088699;47;19923;-81
2022/07/13 03:06:09;;;;;;;;;;;;;;;19.35;59.30;100451.72;1089389;46;19942;-85
2022/07/13 03:07:13;;;;;;;;;;;;;;;19.35;59.29;100455.28;1088629;54;19933;-87
2022/07/13 03:08:15;;;;;;;;;;;;;;;19.32;59.77;100450.25;1088616;54;19950;-86
2022/07/13 03:09:19;;;;;;;;;;;;;;;19.33;59.77;100454.66;1088583;54;19938;-85
2022/07/13 03:10:22;;;;;;;;;;;;;;;19.37;59.44;100453.22;1088537;54;19938;-84
2022/07/13 03:11:24;;;;;;;;;;;;;;;19.38;59.62;100457.59;1088612;54;19950;-84
2022/07/13 03:12:40;;;;;;;;;;;;;;;;;;;;;
2022/07/13 03:13:46;;;;;;;;;;;;;;;19.42;59.56;100452.63;1088656;54;19939;-83
2022/07/13 03:14:47;;;;;;;;;;;;;;;19.41;59.27;100451.81;1088216;54;19950;-86
2022/07/13 03:15:52;;;;;;;;;;;;;;;19.41;59.15;100457.22;1088161;54;19937;-85
2022/07/13 03:16:53;;;;;;;;;;;;;;;19.44;59.14;100456.00;1088241;54;19942;-83
2022/07/13 03:17:57;;;;;;;;;;;;;;;19.45;59.32;100449.53;1088524;54;19933;-84
2022/07/13 03:18:59;;;;;;;;;;;;;;;19.41;59.42;100451.81;1088668;54;19938;-86
2022/07/13 03:20:04;;;;;;;;;;;;;;;19.41;59.26;100459.13;1103688;39;20578;-86
2022/07/13 03:21:08;;;;;;;;;;;;;;;19.39;59.54;100466.59;1088775;54;19926;-84
2022/07/13 03:22:12;;;;;;;;;;;;;;;19.35;59.66;100460.72;1088785;54;20893;-85
2022/07/13 03:23:13;;;;;;;;;;;;;;;19.26;60.50;100470.00;1088585;54;19934;-86
2022/07/13 03:24:17;;;;;;;;;;;;;;;19.25;60.51;100462.91;1088704;54;19974;-87
2022/07/13 03:25:18;;;;;;;;;;;;;;;19.22;60.52;100465.97;1088577;54;19943;-85
2022/07/13 03:26:23;;;;;;;;;;;;;;;19.22;60.21;100464.13;1088695;54;19949;-85
2022/07/13 03:27:27;;;;;;;;;;;;;;;19.21;60.04;100458.88;1088680;54;19942;-85
2022/07/13 03:28:31;;;;;;;;;;;;;;;19.17;60.48;100471.97;1088845;46;19946;-87
2022/07/13 03:29:35;;;;;;;;;;;;;;;19.13;60.48;100462.53;1088620;54;19927;-85
2022/07/13 03:30:39;;;;;;;;;;;;;;;19.10;60.72;100469.19;1088568;54;19942;-85
2022/07/13 03:31:40;;;;;;;;;;;;;;;19.10;60.84;100477.31;1088532;54;19943;-83
2022/07/13 03:32:44;;;;;;;;;;;;;;;19.08;60.93;100473.13;1091739;39;20091;-85
2022/07/13 03:33:45;;;;;;;;;;;;;;;19.05;60.63;100474.34;1088156;54;19943;-85
2022/07/13 03:34:49;;;;;;;;;;;;;;;19.05;60.80;100473.50;1088355;54;19933;-86
2022/07/13 03:35:50;;;;;;;;;;;;;;;19.02;60.71;100462.03;1092515;39;20562;-84
2022/07/13 03:36:54;;;;;;;;;;;;;;;19.05;60.60;100463.50;1088651;54;19939;-84
2022/07/13 03:38:03;;;;;;;;;;;;;;;19.03;60.97;100462.84;1088585;54;19946;-86
2022/07/13 03:39:04;;;;;;;;;;;;;;;18.99;60.98;100465.09;1088657;54;19945;-85
2022/07/13 03:40:10;;;;;;;;;;;;;;;18.94;61.54;100455.88;1088688;54;19942;-86
2022/07/13 03:41:11;;;;;;;;;;;;;;;18.93;61.40;100463.16;1088658;54;19934;-84
2022/07/13 03:42:20;;;;;;;;;;;;;;;18.96;60.96;100456.53;1088630;54;19942;-84
2022/07/13 03:43:21;;;;;;;;;;;;;;;18.98;60.99;100468.03;1088602;54;19927;-85
2022/07/13 03:44:25;;;;;;;;;;;;;;;18.99;60.83;100464.25;1088658;54;19990;-84
2022/07/13 03:45:35;;;;;;;;;;;;;;;18.99;61.09;100456.13;1088638;54;19967;-86
2022/07/13 03:46:40;;;;;;;;;;;;;;;19.01;61.00;100459.50;1088612;54;19943;-83
2022/07/13 03:47:42;;;;;;;;;;;;;;;19.04;61.04;100455.56;1088653;54;19961;-85
2022/07/13 03:48:49;;;;;;;;;;;;;;;19.03;60.72;100446.59;1088570;54;19934;-82
2022/07/13 03:49:51;;;;;;;;;;;;;;;19.06;60.82;100456.22;1088328;54;19950;-81
2022/07/13 03:51:01;;;;;;;;;;;;;;;19.06;60.49;100448.94;1088081;54;20796;-84
2022/07/13 03:52:03;;;;;;;;;;;;;;;19.08;60.59;100449.56;1088070;54;19950;-82
2022/07/13 03:53:08;;;;;;;;;;;;;;;19.09;60.45;100443.13;1088124;54;19987;-82
2022/07/13 03:54:12;;;;;;;;;;;;;;;19.12;60.63;100448.16;1090483;39;20142;-84
2022/07/13 03:55:30;;;;;;;;;;;;;;;19.09;60.75;100453.97;1088670;54;19938;-86
2022/07/13 03:56:37;;;;;;;;;;;;;;;19.09;60.53;100453.97;1088534;54;19927;-86
2022/07/13 03:57:41;;;;;;;;;;;;;;;19.10;60.60;100452.94;1088565;54;19942;-87
2022/07/13 03:58:42;;;;;;;;;;;;;;;19.11;60.76;100440.22;1088529;54;19949;-86
2022/07/13 03:59:46;;;;;;;;;;;;;;;19.12;60.59;100444.63;1088595;54;19926;-84
2022/07/13 04:00:50;;;;;;;;;;;;;;;19.14;60.61;100439.84;1088695;54;19975;-87
2022/07/13 04:01:58;;;;;;;;;;;;;;;19.14;60.37;100443.41;1088595;54;19958;-86
2022/07/13 04:02:59;;;;;;;;;;;;;;;19.07;60.67;100445.19;1088577;54;19966;-80
2022/07/13 04:04:03;;;;;;;;;;;;;;;18.90;60.97;100449.97;1088805;39;20634;-82
2022/07/13 04:05:05;;;;;;;;;;;;;;;18.74;61.00;100447.47;1088396;54;20003;-84
2022/07/13 04:06:09;;;;;;;;;;;;;;;18.68;60.47;100446.34;1088334;54;19943;-83
2022/07/13 04:07:10;;;;;;;;;;;;;;;18.65;60.58;100441.31;1088311;54;20798;-83
2022/07/13 04:08:14;;;;;;;;;;;;;;;18.64;60.59;100436.91;1088165;46;19979;-80
2022/07/13 04:09:15;;;;;;;;;;;;;;;18.64;60.44;100436.91;1089935;39;20617;-80
2022/07/13 04:10:22;;;;;;;;;;;;;;;18.63;60.34;100444.22;1088147;54;19962;-81
2022/07/13 04:11:25;;;;;;;;;;;;;;;18.61;60.70;100443.56;1088306;54;19927;-84
2022/07/13 04:12:29;;;;;;;;;;;;;;;18.60;60.79;100435.63;1088108;54;19986;-81
2022/07/13 04:13:30;;;;;;;;;;;;;;;18.54;60.82;100440.75;1088116;54;20030;-82
2022/07/13 04:14:34;;;;;;;;;;;;;;;18.54;60.66;100440.75;1087945;54;19965;-81
2022/07/13 04:15:35;;;;;;;;;;;;;;;18.54;60.67;100435.34;1088484;54;19950;-81
2022/07/13 04:16:41;;;;;;;;;;;;;;;18.50;60.67;100444.03;1088449;54;20512;-80
2022/07/13 04:17:43;;;;;;;;;;;;;;;18.48;60.78;100440.66;1088485;54;19927;-82
2022/07/13 04:18:47;;;;;;;;;;;;;;;18.46;60.84;100446.28;1088459;54;19933;-82
2022/07/13 04:19:48;;;;;;;;;;;;;;;18.44;60.97;100442.06;1088518;54;19927;-82
2022/07/13 04:20:52;;;;;;;;;;;;;;;18.51;60.82;100446.56;1088512;54;19950;-81
2022/07/13 04:21:53;;;;;;;;;;;;;;;18.60;60.77;100449.19;1088473;54;19949;-81
2022/07/13 04:22:57;;;;;;;;;;;;;;;18.66;60.58;100448.41;1088521;54;19927;-83
2022/07/13 04:23:58;;;;;;;;;;;;;;;18.68;60.40;100446.34;1088492;54;19926;-82
2022/07/13 04:25:02;;;;;;;;;;;;;;;18.67;60.33;100447.38;1088474;54;19942;-82
2022/07/13 04:26:03;;;;;;;;;;;;;;;18.70;60.21;100442.44;1088073;54;19943;-82
2022/07/13 04:27:07;;;;;;;;;;;;;;;18.77;60.39;100444.38;1088958;46;19947;-81
2022/07/13 04:28:08;;;;;;;;;;;;;;;18.80;59.98;100444.81;1088201;54;19927;-81
2022/07/13 04:29:12;;;;;;;;;;;;;;;18.78;60.23;100452.31;1088464;54;19942;-83
2022/07/13 04:30:13;;;;;;;;;;;;;;;18.79;60.08;100447.72;1088459;54;19942;-85
2022/07/13 04:31:18;;;;;;;;;;;;;;;18.85;60.08;100442.41;1088453;54;20512;-82
2022/07/13 04:32:21;;;;;;;;;;;;;;;18.93;59.97;100449.63;1088371;54;19927;-83
2022/07/13 04:33:25;;;;;;;;;;;;;;;18.99;59.65;100445.28;1088435;54;19939;-83
2022/07/13 04:34:26;;;;;;;;;;;;;;;19.01;59.30;100445.94;1088702;46;19949;-83
2022/07/13 04:35:30;;;;;;;;;;;;;;;19.03;59.61;100446.59;1088396;54;19967;-83
2022/07/13 04:36:31;;;;;;;;;;;;;;;19.07;59.49;100442.50;1088409;54;19939;-82
2022/07/13 04:37:37;;;;;;;;;;;;;;;19.09;59.56;100453.97;1088286;54;19931;-83
2022/07/13 04:38:41;;;;;;;;;;;;;;;19.11;59.46;100445.66;1090818;46;19942;-82
2022/07/13 04:39:42;;;;;;;;;;;;;;;19.16;59.24;100444.06;1088376;54;19943;-81
2022/07/13 04:40:47;;;;;;;;;;;;;;;19.13;59.76;100452.56;1088387;54;19967;-82
2022/07/13 04:41:49;;;;;;;;;;;;;;;18.99;60.51;100443.44;1088354;54;19942;-84
2022/07/13 04:42:52;;;;;;;;;;;;;;;19.04;60.54;100445.56;1092627;39;20871;-81
2022/07/13 04:43:53;;;;;;;;;;;;;;;19.10;60.55;100450.22;1088388;54;19942;-82
2022/07/13 04:44:57;;;;;;;;;;;;;;;19.14;60.08;100437.97;1088433;54;19954;-83
2022/07/13 04:45:58;;;;;;;;;;;;;;;19.17;60.12;100434.91;1087965;54;19943;-82
2022/07/13 04:47:02;;;;;;;;;;;;;;;19.20;60.48;100435.53;1087883;54;19941;-80
2022/07/13 04:48:06;;;;;;;;;;;;;;;19.25;59.96;100435.78;1088051;54;19967;-82
2022/07/13 04:49:10;;;;;;;;;;;;;;;19.29;59.92;100437.06;1088404;54;19927;-83
2022/07/13 04:50:11;;;;;;;;;;;;;;;19.30;60.03;100438.75;1088379;54;19931;-81
2022/07/13 04:51:15;;;;;;;;;;;;;;;19.33;60.13;100450.06;1088370;54;19965;-83
2022/07/13 04:52:16;;;;;;;;;;;;;;;19.36;60.16;100442.56;1088367;54;19942;-81
2022/07/13 04:53:20;;;;;;;;;;;;;;;19.37;60.00;100444.25;1088353;54;19943;-83
2022/07/13 04:54:21;;;;;;;;;;;;;;;19.38;60.14;100443.22;1088383;54;19943;-81
2022/07/13 04:55:26;;;;;;;;;;;;;;;19.37;59.97;100450.50;1088350;54;19943;-80
2022/07/13 04:56:27;;;;;;;;;;;;;;;19.35;60.26;100446.31;1088433;54;19923;-81
2022/07/13 04:57:31;;;;;;;;;;;;;;;19.35;60.25;100446.31;1088187;54;19939;-82
2022/07/13 04:58:32;;;;;;;;;;;;;;;19.34;60.09;100453.63;1088420;54;20831;-82
2022/07/13 04:59:36;;;;;;;;;;;;;;;19.33;60.22;100451.94;1088305;54;19942;-81
2022/07/13 05:00:37;;;;;;;;;;;;;;;19.30;60.65;100455.88;1090059;46;20621;-81
2022/07/13 05:01:41;;;;;;;;;;;;;;;19.30;60.41;100455.00;1088227;54;19943;-82
2022/07/13 05:02:43;;;;;;;;;;;;;;;19.26;60.69;100448.31;1088331;54;19942;-82
2022/07/13 05:03:49;;;;;;;;;;;;;;;19.22;60.69;100458.72;1088085;54;20005;-83
2022/07/13 05:04:50;;;;;;;;;;;;;;;19.14;61.11;100467.78;1088073;54;19943;-81
2022/07/13 05:05:54;;;;;;;;;;;;;;;19.05;61.08;100465.38;1088017;54;19950;-81
2022/07/13 05:06:55;;;;;;;;;;;;;;;19.02;61.11;100458.47;1088226;54;19966;-80
2022/07/13 05:07:59;;;;;;;;;;;;;;;19.00;61.48;100460.50;1088316;54;19946;-80
2022/07/13 05:09:00;;;;;;;;;;;;;;;19.00;61.31;100465.94;1088903;46;19943;-80
2022/07/13 05:10:04;;;;;;;;;;;;;;;18.97;61.06;100461.75;1088311;54;19949;-80
2022/07/13 05:11:05;;;;;;;;;;;;;;;18.99;61.02;100461.53;1088363;54;20601;-81
2022/07/13 05:12:09;;;;;;;;;;;;;;;18.99;61.01;100454.28;1088321;54;19949;-81
2022/07/13 05:13:11;;;;;;;;;;;;;;;19.02;60.89;100455.75;1088337;54;20673;-81
2022/07/13 05:14:14;;;;;;;;;;;;;;;19.00;61.24;100455.97;1088321;54;19967;-80
2022/07/13 05:15:15;;;;;;;;;;;;;;;19.01;61.03;100451.38;1087917;54;19949;-81
2022/07/13 05:16:20;;;;;;;;;;;;;;;19.00;60.91;100455.09;1087834;54;21441;-81
2022/07/13 05:17:21;;;;;;;;;;;;;;;19.01;60.81;100456.78;1088198;54;19950;-82
2022/07/13 05:18:25;;;;;;;;;;;;;;;18.97;61.17;100453.63;1088353;54;19931;-82
2022/07/13 05:19:28;;;;;;;;;;;;;;;18.94;61.04;100461.28;1088348;54;19943;-79
2022/07/13 05:20:32;;;;;;;;;;;;;;;18.98;61.01;100457.19;1088393;54;19982;-82
2022/07/13 05:21:33;;;;;;;;;;;;;;;19.01;60.72;100445.94;1088236;54;19966;-82
2022/07/13 05:22:37;;;;;;;;;;;;;;;19.05;60.96;100443.69;1087869;54;19943;-81
2022/07/13 05:23:38;;;;;;;;;;;;;;;19.07;60.75;100444.34;1087958;54;19950;-78
2022/07/13 05:24:43;;;;;;;;;;;;;;;19.10;60.34;100446.69;1089395;39;20550;-81
2022/07/13 05:25:45;;;;;;;;;;;;;;;19.12;60.67;100442.75;1088903;46;19942;-84